createdAt,value
2023-05-04T04:00:46.949Z,1009.86
2023-05-04T04:01:47.933Z,1009.84
2023-05-04T04:02:48.047Z,1009.83
2023-05-04T04:03:48.001Z,1009.82
2023-05-04T04:04:47.977Z,1009.82
2023-05-04T04:05:47.946Z,1009.81
2023-05-04T04:06:47.902Z,1009.81
2023-05-04T04:07:47.906Z,1009.80
2023-05-04T04:08:47.868Z,1009.80
2023-05-04T04:09:47.860Z,1009.80
2023-05-04T04:10:47.851Z,1009.78
2023-05-04T04:11:47.840Z,1009.77
2023-05-04T04:12:47.845Z,1009.76
2023-05-04T04:13:47.824Z,1009.76
2023-05-04T04:14:47.787Z,1009.76
2023-05-04T04:15:47.832Z,1009.75
2023-05-04T04:16:47.812Z,1009.76
2023-05-04T04:17:47.862Z,1009.76
2023-05-04T04:18:47.777Z,1009.76
2023-05-04T04:19:47.741Z,1009.76
2023-05-04T04:20:47.726Z,1009.77
2023-05-04T04:21:47.719Z,1009.79
2023-05-04T04:22:47.708Z,1009.78
2023-05-04T04:23:47.719Z,1009.78
2023-05-04T04:24:47.681Z,1009.79
2023-05-04T04:25:47.678Z,1009.80
2023-05-04T04:26:47.693Z,1009.80
2023-05-04T04:27:47.655Z,1009.80
2023-05-04T04:28:47.687Z,1009.80
2023-05-04T04:29:47.675Z,1009.80
2023-05-04T04:30:47.613Z,1009.80
2023-05-04T04:31:47.651Z,1009.80
2023-05-04T04:32:47.632Z,1009.80
2023-05-04T04:33:47.631Z,1009.80
2023-05-04T04:34:47.600Z,1009.80
2023-05-04T04:35:47.577Z,1009.81
2023-05-04T04:36:47.569Z,1009.81
2023-05-04T04:37:47.569Z,1009.82
2023-05-04T04:38:47.607Z,1009.81
2023-05-04T04:39:47.555Z,1009.80
2023-05-04T04:40:47.540Z,1009.80
2023-05-04T04:41:47.496Z,1009.79
2023-05-04T04:42:47.521Z,1009.79
2023-05-04T04:43:47.474Z,1009.79
2023-05-04T04:44:47.522Z,1009.80
2023-05-04T04:45:47.480Z,1009.79
2023-05-04T04:46:47.515Z,1009.80
2023-05-04T04:47:47.465Z,1009.80
2023-05-04T04:48:47.426Z,1009.81
2023-05-04T04:49:47.445Z,1009.81
2023-05-04T04:50:47.406Z,1009.82
2023-05-04T04:51:47.402Z,1009.83
2023-05-04T04:52:47.388Z,1009.83
2023-05-04T04:53:47.407Z,1009.84
2023-05-04T04:54:47.369Z,1009.84
2023-05-04T04:55:47.350Z,1009.84
2023-05-04T04:56:47.355Z,1009.85
2023-05-04T04:57:47.330Z,1009.85
2023-05-04T04:58:47.356Z,1009.85
2023-05-04T04:59:47.315Z,1009.86
2023-05-04T05:00:47.361Z,1009.86
2023-05-04T05:01:47.284Z,1009.87
2023-05-04T05:02:47.369Z,1009.88
2023-05-04T05:03:47.290Z,1009.89
2023-05-04T05:04:47.327Z,1009.89
2023-05-04T05:05:47.246Z,1009.89
2023-05-04T05:06:47.244Z,1009.89
2023-05-04T05:07:47.222Z,1009.88
2023-05-04T05:08:47.243Z,1009.87
2023-05-04T05:09:47.207Z,1009.86
2023-05-04T05:10:47.215Z,1009.85
2023-05-04T05:11:47.202Z,1009.87
2023-05-04T05:12:47.419Z,1009.87
2023-05-04T05:13:47.260Z,1009.87
2023-05-04T05:14:47.168Z,1009.87
2023-05-04T05:15:47.187Z,1009.86
2023-05-04T05:16:47.165Z,1009.84
2023-05-04T05:17:47.156Z,1009.82
2023-05-04T05:18:47.133Z,1009.82
2023-05-04T05:19:47.113Z,1009.82
2023-05-04T05:20:47.101Z,1009.82
2023-05-04T05:21:47.095Z,1009.82
2023-05-04T05:22:47.095Z,1009.82
2023-05-04T05:23:47.089Z,1009.82
2023-05-04T05:24:47.205Z,1009.82
2023-05-04T05:25:47.032Z,1009.81
2023-05-04T05:26:47.030Z,1009.80
2023-05-04T05:27:47.022Z,1009.80
2023-05-04T05:28:47.026Z,1009.79
2023-05-04T05:29:47.022Z,1009.80
2023-05-04T05:30:47.049Z,1009.80
2023-05-04T05:31:46.970Z,1009.80
2023-05-04T05:32:49.196Z,1009.81
2023-05-04T05:33:46.989Z,1009.80
2023-05-04T05:34:46.955Z,1009.81
2023-05-04T05:35:46.934Z,1009.81
2023-05-04T05:36:46.920Z,1009.82
2023-05-04T05:37:46.907Z,1009.82
2023-05-04T05:38:49.670Z,1009.82
2023-05-04T05:39:46.882Z,1009.82
2023-05-04T05:40:46.878Z,1009.81
2023-05-04T05:41:46.938Z,1009.81
2023-05-04T05:42:46.861Z,1009.81
2023-05-04T05:43:46.870Z,1009.82
2023-05-04T05:44:46.851Z,1009.82
2023-05-04T05:45:46.881Z,1009.82
2023-05-04T05:46:46.873Z,1009.83
2023-05-04T05:47:46.834Z,1009.83
2023-05-04T05:48:46.838Z,1009.83
2023-05-04T05:49:46.783Z,1009.82
2023-05-04T05:50:46.779Z,1009.82
2023-05-04T05:51:46.763Z,1009.81
2023-05-04T05:52:46.758Z,1009.80
2023-05-04T05:53:46.797Z,1009.80
2023-05-04T05:54:46.740Z,1009.79
2023-05-04T05:55:46.723Z,1009.78
2023-05-04T05:56:46.720Z,1009.78
2023-05-04T05:57:46.698Z,1009.76
2023-05-04T05:58:46.742Z,1009.75
2023-05-04T05:59:46.746Z,1009.74
2023-05-04T06:00:46.674Z,1009.73
2023-05-04T06:01:46.648Z,1009.72
2023-05-04T06:02:46.723Z,1009.72
2023-05-04T06:03:47.132Z,1009.72
2023-05-04T06:04:46.765Z,1009.72
2023-05-04T06:05:46.649Z,1009.72
2023-05-04T06:06:46.613Z,1009.72
2023-05-04T06:07:46.596Z,1009.72
2023-05-04T06:08:46.676Z,1009.71
2023-05-04T06:09:46.567Z,1009.70
2023-05-04T06:10:46.596Z,1009.69
2023-05-04T06:11:46.543Z,1009.68
2023-05-04T06:12:46.584Z,1009.67
2023-05-04T06:13:46.544Z,1009.65
2023-05-04T06:14:46.522Z,1009.65
2023-05-04T06:15:46.550Z,1009.65
2023-05-04T06:16:46.643Z,1009.66
2023-05-04T06:17:46.542Z,1009.66
2023-05-04T06:18:46.489Z,1009.65
2023-05-04T06:19:48.046Z,1009.66
2023-05-04T06:20:46.449Z,1009.65
2023-05-04T06:21:46.437Z,1009.64
2023-05-04T06:22:46.429Z,1009.64
2023-05-04T06:23:46.473Z,1009.63
2023-05-04T06:24:46.439Z,1009.62
2023-05-04T06:25:46.399Z,1009.61
2023-05-04T06:26:46.409Z,1009.60
2023-05-04T06:27:47.042Z,1009.59
2023-05-04T06:28:46.398Z,1009.58
2023-05-04T06:29:46.355Z,1009.59
2023-05-04T06:30:46.343Z,1009.58
2023-05-04T06:31:48.187Z,1009.57
2023-05-04T06:32:46.360Z,1009.55
2023-05-04T06:33:46.322Z,1009.53
2023-05-04T06:34:46.303Z,1009.52
2023-05-04T06:35:46.307Z,1009.50
2023-05-04T06:36:46.275Z,1009.48
2023-05-04T06:37:46.288Z,1009.46
2023-05-04T06:38:46.255Z,1009.45
2023-05-04T06:39:46.251Z,1009.45
2023-05-04T06:40:46.247Z,1009.45
2023-05-04T06:41:46.249Z,1009.45
2023-05-04T06:42:46.251Z,1009.45
2023-05-04T06:43:46.196Z,1009.47
2023-05-04T06:44:46.216Z,1009.47
2023-05-04T06:45:46.250Z,1009.50
2023-05-04T06:46:46.171Z,1009.49
2023-05-04T06:47:46.200Z,1009.48
2023-05-04T06:48:46.164Z,1009.48
2023-05-04T06:49:46.128Z,1009.47
2023-05-04T06:50:46.129Z,1009.46
2023-05-04T06:51:46.122Z,1009.45
2023-05-04T06:52:46.145Z,1009.43
2023-05-04T06:53:46.115Z,1009.42
2023-05-04T06:54:46.096Z,1009.40
2023-05-04T06:55:46.069Z,1009.40
2023-05-04T06:56:46.061Z,1009.40
2023-05-04T06:57:46.042Z,1009.40
2023-05-04T06:58:46.057Z,1009.40
2023-05-04T06:59:46.036Z,1009.41
2023-05-04T07:00:46.055Z,1009.42
2023-05-04T07:01:46.073Z,1009.41
2023-05-04T07:02:46.041Z,1009.42
2023-05-04T07:03:46.040Z,1009.42
2023-05-04T07:04:46.003Z,1009.40
2023-05-04T07:05:45.949Z,1009.39
2023-05-04T07:06:45.947Z,1009.38
2023-05-04T07:07:45.934Z,1009.39
2023-05-04T07:08:45.945Z,1009.37
2023-05-04T07:09:45.973Z,1009.38
2023-05-04T07:10:45.944Z,1009.37
2023-05-04T07:11:45.895Z,1009.37
2023-05-04T07:12:45.975Z,1009.37
2023-05-04T07:13:45.970Z,1009.39
2023-05-04T07:14:45.878Z,1009.41
2023-05-04T07:15:45.871Z,1009.42
2023-05-04T07:16:45.937Z,1009.44
2023-05-04T07:17:45.886Z,1009.44
2023-05-04T07:18:45.905Z,1009.46
2023-05-04T07:19:45.805Z,1009.47
2023-05-04T07:20:45.799Z,1009.48
2023-05-04T07:21:45.795Z,1009.47
2023-05-04T07:22:45.782Z,1009.46
2023-05-04T07:23:45.808Z,1009.47
2023-05-04T07:24:45.763Z,1009.47
2023-05-04T07:25:45.746Z,1009.45
2023-05-04T07:26:45.742Z,1009.44
2023-05-04T07:27:45.717Z,1009.44
2023-05-04T07:28:45.733Z,1009.43
2023-05-04T07:29:45.699Z,1009.41
2023-05-04T07:30:45.688Z,1009.40
2023-05-04T07:31:45.727Z,1009.37
2023-05-04T07:32:45.699Z,1009.36
2023-05-04T07:33:45.689Z,1009.34
2023-05-04T07:34:46.571Z,1009.32
2023-05-04T07:35:45.638Z,1009.31
2023-05-04T07:36:45.628Z,1009.30
2023-05-04T07:37:45.613Z,1009.28
2023-05-04T07:38:45.668Z,1009.25
2023-05-04T07:39:45.601Z,1009.26
2023-05-04T07:40:45.593Z,1009.24
2023-05-04T07:41:47.086Z,1009.23
2023-05-04T07:42:45.578Z,1009.23
2023-05-04T07:43:45.644Z,1009.21
2023-05-04T07:44:45.532Z,1009.20
2023-05-04T07:45:45.566Z,1009.18
2023-05-04T07:46:45.511Z,1009.16
2023-05-04T07:47:45.589Z,1009.15
2023-05-04T07:48:45.517Z,1009.11
2023-05-04T07:49:45.493Z,1009.10
2023-05-04T07:50:45.474Z,1009.12
2023-05-04T07:51:45.452Z,1009.12
2023-05-04T07:52:45.454Z,1009.15
2023-05-04T07:53:45.472Z,1009.15
2023-05-04T07:54:45.456Z,1009.16
2023-05-04T07:55:45.406Z,1009.17
2023-05-04T07:56:45.443Z,1009.16
2023-05-04T07:57:45.386Z,1009.17
2023-05-04T07:58:45.390Z,1009.16
2023-05-04T07:59:45.361Z,1009.17
2023-05-04T08:00:45.358Z,1009.17
2023-05-04T08:01:45.386Z,1009.18
2023-05-04T08:02:45.456Z,1009.18
2023-05-04T08:03:45.348Z,1009.15
2023-05-04T08:04:45.343Z,1009.15
2023-05-04T08:05:45.600Z,1009.16
2023-05-04T08:06:45.290Z,1009.15
2023-05-04T08:07:45.279Z,1009.14
2023-05-04T08:08:45.291Z,1009.12
2023-05-04T08:09:45.266Z,1009.11
2023-05-04T08:10:45.249Z,1009.10
2023-05-04T08:11:45.616Z,1009.09
2023-05-04T08:12:45.238Z,1009.09
2023-05-04T08:13:45.228Z,1009.09
2023-05-04T08:14:45.200Z,1009.10
2023-05-04T08:15:45.198Z,1009.09
2023-05-04T08:16:45.192Z,1009.09
2023-05-04T08:17:45.224Z,1009.10
2023-05-04T08:18:45.186Z,1009.10
2023-05-04T08:19:45.162Z,1009.10
2023-05-04T08:20:45.142Z,1009.12
2023-05-04T08:21:45.164Z,1009.11
2023-05-04T08:22:45.188Z,1009.13
2023-05-04T08:23:45.113Z,1009.14
2023-05-04T08:24:45.108Z,1009.15
2023-05-04T08:25:45.177Z,1009.16
2023-05-04T08:26:49.569Z,1009.16
2023-05-04T08:27:45.098Z,1009.15
2023-05-04T08:28:45.071Z,1009.15
2023-05-04T08:29:45.047Z,1009.14
2023-05-04T08:30:45.077Z,1009.14
2023-05-04T08:31:45.044Z,1009.14
2023-05-04T08:32:45.072Z,1009.15
2023-05-04T08:33:45.025Z,1009.14
2023-05-04T08:34:45.059Z,1009.16
2023-05-04T08:35:44.977Z,1009.16
2023-05-04T08:36:44.974Z,1009.15
2023-05-04T08:37:44.997Z,1009.14
2023-05-04T08:38:45.009Z,1009.14
2023-05-04T08:39:45.066Z,1009.13
2023-05-04T08:40:45.050Z,1009.12
2023-05-04T08:41:44.922Z,1009.10
2023-05-04T08:42:44.949Z,1009.08
2023-05-04T08:43:44.904Z,1009.08
2023-05-04T08:44:44.909Z,1009.06
2023-05-04T08:45:44.921Z,1009.05
2023-05-04T08:46:44.868Z,1009.04
2023-05-04T08:47:44.878Z,1009.03
2023-05-04T08:48:44.893Z,1009.04
2023-05-04T08:49:44.827Z,1009.04
2023-05-04T08:50:44.832Z,1009.04
2023-05-04T08:51:44.820Z,1009.04
2023-05-04T08:52:44.803Z,1009.04
2023-05-04T08:53:44.799Z,1009.04
2023-05-04T08:54:44.786Z,1009.02
2023-05-04T08:55:44.776Z,1009.01
2023-05-04T08:56:44.753Z,1008.99
2023-05-04T08:57:44.844Z,1008.98
2023-05-04T08:58:44.741Z,1008.97
2023-05-04T08:59:44.734Z,1008.95
2023-05-04T09:00:44.754Z,1008.94
2023-05-04T09:01:44.778Z,1008.91
2023-05-04T09:02:44.761Z,1008.90
2023-05-04T09:03:44.831Z,1008.88
2023-05-04T09:04:44.670Z,1008.87
2023-05-04T09:05:44.652Z,1008.87
2023-05-04T09:06:44.645Z,1008.86
2023-05-04T09:07:44.634Z,1008.86
2023-05-04T09:08:44.635Z,1008.86
2023-05-04T09:09:44.622Z,1008.85
2023-05-04T09:10:44.608Z,1008.83
2023-05-04T09:11:44.599Z,1008.81
2023-05-04T09:12:44.597Z,1008.80
2023-05-04T09:13:44.586Z,1008.79
2023-05-04T09:14:44.584Z,1008.77
2023-05-04T09:15:44.573Z,1008.76
2023-05-04T09:16:44.571Z,1008.74
2023-05-04T09:17:56.990Z,1008.74
2023-05-04T09:18:44.534Z,1008.74
2023-05-04T09:19:44.523Z,1008.72
2023-05-04T09:20:44.483Z,1008.72
2023-05-04T09:21:44.483Z,1008.73
2023-05-04T09:22:44.462Z,1008.71
2023-05-04T09:23:44.532Z,1008.72
2023-05-04T09:24:44.438Z,1008.73
2023-05-04T09:25:44.438Z,1008.74
2023-05-04T09:26:44.432Z,1008.72
2023-05-04T09:27:44.438Z,1008.73
2023-05-04T09:28:44.420Z,1008.72
2023-05-04T09:29:44.394Z,1008.73
2023-05-04T09:30:44.547Z,1008.75
2023-05-04T09:31:44.376Z,1008.76
2023-05-04T09:32:44.416Z,1008.76
2023-05-04T09:33:44.361Z,1008.76
2023-05-04T09:34:44.357Z,1008.75
2023-05-04T09:35:44.345Z,1008.75
2023-05-04T09:36:44.323Z,1008.74
2023-05-04T09:37:44.311Z,1008.73
2023-05-04T09:38:44.356Z,1008.73
2023-05-04T09:39:44.307Z,1008.72
2023-05-04T09:40:44.273Z,1008.72
2023-05-04T09:41:44.266Z,1008.72
2023-05-04T09:42:44.257Z,1008.71
2023-05-04T09:43:44.258Z,1008.70
2023-05-04T09:44:44.253Z,1008.70
2023-05-04T09:45:44.253Z,1008.68
2023-05-04T09:46:44.272Z,1008.67
2023-05-04T09:47:44.239Z,1008.64
2023-05-04T09:48:44.201Z,1008.63
2023-05-04T09:49:44.189Z,1008.62
2023-05-04T09:50:44.159Z,1008.59
2023-05-04T09:51:44.171Z,1008.58
2023-05-04T09:52:44.180Z,1008.57
2023-05-04T09:53:44.150Z,1008.56
2023-05-04T09:54:44.118Z,1008.54
2023-05-04T09:55:44.119Z,1008.54
2023-05-04T09:56:44.105Z,1008.55
2023-05-04T09:57:44.090Z,1008.54
2023-05-04T09:58:44.126Z,1008.54
2023-05-04T09:59:44.080Z,1008.55
2023-05-04T10:00:44.077Z,1008.54
2023-05-04T10:01:44.955Z,1008.53
2023-05-04T10:02:44.100Z,1008.52
2023-05-04T10:03:44.069Z,1008.52
2023-05-04T10:04:44.017Z,1008.50
2023-05-04T10:05:44.040Z,1008.49
2023-05-04T10:06:43.986Z,1008.47
2023-05-04T10:07:43.994Z,1008.45
2023-05-04T10:08:43.977Z,1008.45
2023-05-04T10:09:43.960Z,1008.43
2023-05-04T10:10:43.946Z,1008.42
2023-05-04T10:11:43.989Z,1008.42
2023-05-04T10:12:43.985Z,1008.40
2023-05-04T10:13:43.966Z,1008.39
2023-05-04T10:14:43.913Z,1008.37
2023-05-04T10:15:43.920Z,1008.35
2023-05-04T10:16:43.911Z,1008.34
2023-05-04T10:17:43.926Z,1008.33
2023-05-04T10:18:43.915Z,1008.29
2023-05-04T10:19:43.853Z,1008.28
2023-05-04T10:20:43.867Z,1008.26
2023-05-04T10:21:43.834Z,1008.24
2023-05-04T10:22:43.818Z,1008.21
2023-05-04T10:23:43.822Z,1008.18
2023-05-04T10:24:43.895Z,1008.15
2023-05-04T10:25:43.791Z,1008.13
2023-05-04T10:26:43.797Z,1008.11
2023-05-04T10:27:43.782Z,1008.09
2023-05-04T10:28:43.797Z,1008.09
2023-05-04T10:29:43.760Z,1008.07
2023-05-04T10:30:43.736Z,1008.07
2023-05-04T10:31:43.924Z,1008.07
2023-05-04T10:32:43.746Z,1008.05
2023-05-04T10:33:43.756Z,1008.02
2023-05-04T10:34:43.690Z,1007.97
2023-05-04T10:35:43.702Z,1007.95
2023-05-04T10:36:43.665Z,1007.95
2023-05-04T10:37:43.664Z,1007.95
2023-05-04T10:38:43.705Z,1007.93
2023-05-04T10:39:43.691Z,1007.94
2023-05-04T10:40:43.658Z,1007.90
2023-05-04T10:41:43.640Z,1007.92
2023-05-04T10:42:43.626Z,1007.90
2023-05-04T10:43:43.632Z,1007.88
2023-05-04T10:44:43.615Z,1007.87
2023-05-04T10:45:43.608Z,1007.89
2023-05-04T10:46:43.581Z,1007.88
2023-05-04T10:47:43.567Z,1007.89
2023-05-04T10:48:43.550Z,1007.88
2023-05-04T10:49:43.541Z,1007.85
2023-05-04T10:50:43.544Z,1007.81
2023-05-04T10:51:49.319Z,1007.79
2023-05-04T10:52:43.514Z,1007.78
2023-05-04T10:53:43.509Z,1007.75
2023-05-04T10:54:43.488Z,1007.75
2023-05-04T10:55:43.481Z,1007.71
2023-05-04T10:56:43.458Z,1007.66
2023-05-04T10:57:43.502Z,1007.63
2023-05-04T10:58:43.449Z,1007.66
2023-05-04T10:59:43.433Z,1007.65
2023-05-04T11:00:43.409Z,1007.65
2023-05-04T11:01:43.471Z,1007.64
2023-05-04T11:02:43.474Z,1007.64
2023-05-04T11:03:43.605Z,1007.62
2023-05-04T11:04:43.387Z,1007.60
2023-05-04T11:05:43.388Z,1007.56
2023-05-04T11:06:43.410Z,1007.56
2023-05-04T11:07:43.348Z,1007.55
2023-05-04T11:08:43.339Z,1007.54
2023-05-04T11:09:43.343Z,1007.51
2023-05-04T11:10:43.302Z,1007.51
2023-05-04T11:11:43.306Z,1007.48
2023-05-04T11:12:43.339Z,1007.49
2023-05-04T11:13:43.293Z,1007.48
2023-05-04T11:14:43.589Z,1007.48
2023-05-04T11:15:43.252Z,1007.45
2023-05-04T11:16:43.271Z,1007.42
2023-05-04T11:17:43.302Z,1007.39
2023-05-04T11:18:43.212Z,1007.38
2023-05-04T11:19:43.232Z,1007.36
2023-05-04T11:20:43.201Z,1007.37
2023-05-04T11:21:43.340Z,1007.36
2023-05-04T11:22:43.341Z,1007.36
2023-05-04T11:23:43.187Z,1007.35
2023-05-04T11:24:43.172Z,1007.37
2023-05-04T11:25:43.146Z,1007.35
2023-05-04T11:26:43.136Z,1007.36
2023-05-04T11:27:43.186Z,1007.34
2023-05-04T11:28:43.139Z,1007.34
2023-05-04T11:29:43.121Z,1007.32
2023-05-04T11:30:43.117Z,1007.31
2023-05-04T11:31:43.107Z,1007.28
2023-05-04T11:32:43.114Z,1007.27
2023-05-04T11:33:43.151Z,1007.22
2023-05-04T11:34:43.057Z,1007.22
2023-05-04T11:35:43.069Z,1007.19
2023-05-04T11:36:43.026Z,1007.17
2023-05-04T11:37:43.062Z,1007.19
2023-05-04T11:38:43.005Z,1007.19
2023-05-04T11:39:43.008Z,1007.18
2023-05-04T11:40:43.004Z,1007.17
2023-05-04T11:41:42.996Z,1007.17
2023-05-04T11:42:43.045Z,1007.14
2023-05-04T11:43:42.974Z,1007.13
2023-05-04T11:44:42.953Z,1007.13
2023-05-04T11:45:42.935Z,1007.09
2023-05-04T11:46:42.959Z,1007.08
2023-05-04T11:47:43.010Z,1007.08
2023-05-04T11:48:42.912Z,1007.07
2023-05-04T11:49:42.900Z,1007.06
2023-05-04T11:50:42.882Z,1007.05
2023-05-04T11:51:42.873Z,1007.04
2023-05-04T11:52:42.881Z,1007.01
2023-05-04T11:53:42.872Z,1006.99
2023-05-04T11:54:42.843Z,1006.98
2023-05-04T11:55:42.874Z,1006.99
2023-05-04T11:56:42.826Z,1006.96
2023-05-04T11:57:42.822Z,1006.94
2023-05-04T11:58:42.794Z,1006.93
2023-05-04T11:59:42.782Z,1006.90
2023-05-04T12:00:42.777Z,1006.89
2023-05-04T12:01:42.777Z,1006.86
2023-05-04T12:02:42.943Z,1006.86
2023-05-04T12:03:52.254Z,1006.82
2023-05-04T12:04:42.727Z,1006.81
2023-05-04T12:05:42.814Z,1006.81
2023-05-04T12:06:42.701Z,1006.81
2023-05-04T12:07:42.834Z,1006.79
2023-05-04T12:08:42.705Z,1006.80
2023-05-04T12:09:42.689Z,1006.82
2023-05-04T12:10:42.680Z,1006.82
2023-05-04T12:11:42.680Z,1006.79
2023-05-04T12:12:42.699Z,1006.80
2023-05-04T12:13:42.664Z,1006.77
2023-05-04T12:14:42.614Z,1006.73
2023-05-04T12:15:42.613Z,1006.71
2023-05-04T12:16:42.763Z,1006.69
2023-05-04T12:17:42.695Z,1006.69
2023-05-04T12:18:42.588Z,1006.71
2023-05-04T12:19:42.661Z,1006.69
2023-05-04T12:20:42.552Z,1006.71
2023-05-04T12:21:42.553Z,1006.69
2023-05-04T12:22:42.548Z,1006.68
2023-05-04T12:23:42.532Z,1006.67
2023-05-04T12:24:42.511Z,1006.69
2023-05-04T12:25:54.683Z,1006.68
2023-05-04T12:26:42.523Z,1006.67
2023-05-04T12:27:42.532Z,1006.67
2023-05-04T12:28:42.465Z,1006.63
2023-05-04T12:29:42.459Z,1006.57
2023-05-04T12:30:42.451Z,1006.56
2023-05-04T12:31:42.517Z,1006.53
2023-05-04T12:32:42.520Z,1006.54
2023-05-04T12:33:42.424Z,1006.50
2023-05-04T12:34:42.424Z,1006.49
2023-05-04T12:35:42.400Z,1006.49
2023-05-04T12:36:42.373Z,1006.45
2023-05-04T12:37:42.421Z,1006.50
2023-05-04T12:38:42.378Z,1006.46
2023-05-04T12:39:42.377Z,1006.44
2023-05-04T12:40:42.343Z,1006.46
2023-05-04T12:41:42.342Z,1006.41
2023-05-04T12:42:42.339Z,1006.39
2023-05-04T12:43:42.319Z,1006.36
2023-05-04T12:44:42.297Z,1006.32
2023-05-04T12:45:42.381Z,1006.31
2023-05-04T12:46:42.284Z,1006.27
2023-05-04T12:47:42.309Z,1006.29
2023-05-04T12:48:42.257Z,1006.29
2023-05-04T12:49:42.417Z,1006.25
2023-05-04T12:50:42.227Z,1006.24
2023-05-04T12:51:42.234Z,1006.23
2023-05-04T12:52:42.264Z,1006.23
2023-05-04T12:53:42.202Z,1006.22
2023-05-04T12:54:42.210Z,1006.21
2023-05-04T12:55:42.187Z,1006.21
2023-05-04T12:56:42.177Z,1006.21
2023-05-04T12:57:42.187Z,1006.22
2023-05-04T12:58:42.145Z,1006.19
2023-05-04T12:59:42.141Z,1006.20
2023-05-04T13:00:43.303Z,1006.18
2023-05-04T13:01:42.169Z,1006.17
2023-05-04T13:02:42.194Z,1006.14
2023-05-04T13:03:42.297Z,1006.20
2023-05-04T13:04:42.098Z,1006.16
2023-05-04T13:05:42.070Z,1006.14
2023-05-04T13:06:42.154Z,1006.15
2023-05-04T13:07:42.093Z,1006.12
2023-05-04T13:08:42.054Z,1006.11
2023-05-04T13:09:42.027Z,1006.09
2023-05-04T13:10:42.043Z,1006.05
2023-05-04T13:11:42.111Z,1006.02
2023-05-04T13:12:43.538Z,1006.03
2023-05-04T13:13:41.978Z,1006.06
2023-05-04T13:14:41.983Z,1006.04
2023-05-04T13:15:42.010Z,1006.00
2023-05-04T13:16:41.980Z,1006.00
2023-05-04T13:17:41.997Z,1005.99
2023-05-04T13:18:41.948Z,1005.96
2023-05-04T13:19:41.928Z,1005.97
2023-05-04T13:20:41.923Z,1005.96
2023-05-04T13:21:41.899Z,1005.92
2023-05-04T13:22:41.926Z,1005.95
2023-05-04T13:23:41.872Z,1005.94
2023-05-04T13:24:41.875Z,1005.93
2023-05-04T13:25:41.881Z,1005.91
2023-05-04T13:26:41.862Z,1005.89
2023-05-04T13:27:41.903Z,1005.86
2023-05-04T13:28:41.832Z,1005.87
2023-05-04T13:29:41.837Z,1005.86
2023-05-04T13:30:41.841Z,1005.87
2023-05-04T13:31:44.840Z,1005.85
2023-05-04T13:32:41.829Z,1005.85
2023-05-04T13:33:41.838Z,1005.80
2023-05-04T13:34:41.800Z,1005.76
2023-05-04T13:35:43.573Z,1005.79
2023-05-04T13:36:41.757Z,1005.72
2023-05-04T13:37:41.743Z,1005.69
2023-05-04T13:38:41.726Z,1005.67
2023-05-04T13:39:41.721Z,1005.64
2023-05-04T13:40:41.713Z,1005.61
2023-05-04T13:41:41.686Z,1005.59
2023-05-04T13:42:41.699Z,1005.56
2023-05-04T13:43:41.667Z,1005.55
2023-05-04T13:44:41.666Z,1005.53
2023-05-04T13:45:41.672Z,1005.51
2023-05-04T13:46:41.675Z,1005.50
2023-05-04T13:47:41.696Z,1005.49
2023-05-04T13:48:41.619Z,1005.45
2023-05-04T13:49:41.613Z,1005.48
2023-05-04T13:50:41.589Z,1005.45
2023-05-04T13:51:41.581Z,1005.46
2023-05-04T13:52:41.595Z,1005.45
2023-05-04T13:53:41.561Z,1005.42
2023-05-04T13:54:41.607Z,1005.39
2023-05-04T13:55:41.538Z,1005.38
2023-05-04T13:56:41.544Z,1005.37
2023-05-04T13:57:41.572Z,1005.34
2023-05-04T13:58:41.513Z,1005.38
2023-05-04T13:59:44.615Z,1005.34
2023-05-04T14:00:41.538Z,1005.34
2023-05-04T14:01:41.489Z,1005.31
2023-05-04T14:02:41.579Z,1005.31
2023-05-04T14:03:41.484Z,1005.28
2023-05-04T14:04:43.175Z,1005.27
2023-05-04T14:05:41.425Z,1005.25
2023-05-04T14:06:41.419Z,1005.21
2023-05-04T14:07:41.429Z,1005.15
2023-05-04T14:08:41.397Z,1005.14
2023-05-04T14:09:41.382Z,1005.15
2023-05-04T14:10:41.402Z,1005.09
2023-05-04T14:11:41.357Z,1005.11
2023-05-04T14:12:41.409Z,1005.08
2023-05-04T14:13:41.365Z,1005.03
2023-05-04T14:14:41.348Z,1005.00
2023-05-04T14:15:41.319Z,1005.01
2023-05-04T14:16:41.325Z,1004.94
2023-05-04T14:17:41.330Z,1004.95
2023-05-04T14:18:41.284Z,1004.88
2023-05-04T14:19:41.271Z,1004.88
2023-05-04T14:20:41.265Z,1004.86
2023-05-04T14:21:41.276Z,1004.87
2023-05-04T14:22:41.339Z,1004.84
2023-05-04T14:23:41.227Z,1004.83
2023-05-04T14:24:41.224Z,1004.78
2023-05-04T14:25:41.232Z,1004.77
2023-05-04T14:26:41.212Z,1004.73
2023-05-04T14:27:41.209Z,1004.74
2023-05-04T14:28:41.180Z,1004.70
2023-05-04T14:29:41.166Z,1004.68
2023-05-04T14:30:41.154Z,1004.65
2023-05-04T14:31:41.163Z,1004.64
2023-05-04T14:32:41.199Z,1004.62
2023-05-04T14:33:41.132Z,1004.61
2023-05-04T14:34:41.128Z,1004.61
2023-05-04T14:35:41.106Z,1004.60
2023-05-04T14:36:41.098Z,1004.58
2023-05-04T14:37:41.095Z,1004.59
2023-05-04T14:38:41.079Z,1004.58
2023-05-04T14:39:41.060Z,1004.60
2023-05-04T14:40:41.069Z,1004.55
2023-05-04T14:41:41.043Z,1004.57
2023-05-04T14:42:41.041Z,1004.52
2023-05-04T14:43:41.027Z,1004.54
2023-05-04T14:44:41.030Z,1004.47
2023-05-04T14:45:41.041Z,1004.44
2023-05-04T14:46:40.999Z,1004.48
2023-05-04T14:47:41.002Z,1004.46
2023-05-04T14:48:40.963Z,1004.45
2023-05-04T14:49:40.953Z,1004.45
2023-05-04T14:50:40.952Z,1004.43
2023-05-04T14:51:40.930Z,1004.42
2023-05-04T14:52:40.949Z,1004.39
2023-05-04T14:53:40.936Z,1004.38
2023-05-04T14:54:40.952Z,1004.38
2023-05-04T14:55:40.888Z,1004.37
2023-05-04T14:56:40.915Z,1004.38
2023-05-04T14:57:40.881Z,1004.34
2023-05-04T14:58:40.934Z,1004.30
2023-05-04T14:59:40.839Z,1004.32
2023-05-04T15:00:40.838Z,1004.30
2023-05-04T15:01:40.845Z,1004.27
2023-05-04T15:02:40.913Z,1004.28
2023-05-04T15:03:40.871Z,1004.28
2023-05-04T15:04:40.805Z,1004.27
2023-05-04T15:05:40.791Z,1004.26
2023-05-04T15:06:40.781Z,1004.29
2023-05-04T15:07:40.793Z,1004.27
2023-05-04T15:08:40.759Z,1004.29
2023-05-04T15:09:40.746Z,1004.28
2023-05-04T15:10:40.728Z,1004.24
2023-05-04T15:11:40.716Z,1004.26
2023-05-04T15:12:40.777Z,1004.25
2023-05-04T15:13:40.714Z,1004.22
2023-05-04T15:14:40.692Z,1004.25
2023-05-04T15:15:40.744Z,1004.24
2023-05-04T15:16:40.688Z,1004.22
2023-05-04T15:17:40.696Z,1004.21
2023-05-04T15:18:40.666Z,1004.20
2023-05-04T15:19:40.656Z,1004.20
2023-05-04T15:20:40.632Z,1004.19
2023-05-04T15:21:40.612Z,1004.18
2023-05-04T15:22:40.636Z,1004.15
2023-05-04T15:23:40.646Z,1004.16
2023-05-04T15:24:40.584Z,1004.16
2023-05-04T15:25:40.565Z,1004.16
2023-05-04T15:26:40.565Z,1004.12
2023-05-04T15:27:40.551Z,1004.12
2023-05-04T15:28:40.537Z,1004.10
2023-05-04T15:29:40.551Z,1004.09
2023-05-04T15:30:40.508Z,1004.07
2023-05-04T15:31:40.587Z,1004.06
2023-05-04T15:32:40.524Z,1004.05
2023-05-04T15:33:40.483Z,1004.04
2023-05-04T15:34:42.467Z,1004.04
2023-05-04T15:35:40.460Z,1004.02
2023-05-04T15:36:40.456Z,1004.05
2023-05-04T15:37:40.429Z,1003.99
2023-05-04T15:38:40.439Z,1003.99
2023-05-04T15:39:40.410Z,1004.00
2023-05-04T15:40:40.416Z,1003.98
2023-05-04T15:41:40.412Z,1003.98
2023-05-04T15:42:40.395Z,1003.95
2023-05-04T15:43:40.388Z,1003.95
2023-05-04T15:44:40.368Z,1003.92
2023-05-04T15:45:40.370Z,1003.91
2023-05-04T15:46:40.496Z,1003.86
2023-05-04T15:47:40.404Z,1003.87
2023-05-04T15:48:40.376Z,1003.86
2023-05-04T15:49:40.307Z,1003.83
2023-05-04T15:50:40.329Z,1003.79
2023-05-04T15:51:40.298Z,1003.79
2023-05-04T15:52:40.291Z,1003.77
2023-05-04T15:53:40.327Z,1003.72
2023-05-04T15:54:40.256Z,1003.71
2023-05-04T15:55:40.286Z,1003.69
2023-05-04T15:56:40.235Z,1003.71
2023-05-04T15:57:40.223Z,1003.70
2023-05-04T15:58:40.222Z,1003.69
2023-05-04T15:59:40.199Z,1003.72
2023-05-04T16:00:40.203Z,1003.69
2023-05-04T16:01:40.301Z,1003.70
2023-05-04T16:02:40.273Z,1003.70
2023-05-04T16:03:40.179Z,1003.69
2023-05-04T16:04:40.159Z,1003.68
2023-05-04T16:05:40.144Z,1003.68